Time;durP1;ratioP1;P1;durP2;ratioP2;P2;SDS_P1;SDS_P2;PMS_P1;PMS_P2;Temp;Humidity;BMP_temperature;BMP_pressure;BME280_temperature;BME280_humidity;BME280_pressure;Samples;Min_cycle;Max_cycle;Signal;HPM_P1;HPM_P2
2022/06/02 00:00:19;;;;;;;1.88;1.77;;;;;;;;;;4844805;29;20042;-79
2022/06/02 00:02:51;;;;;;;5.90;1.90;;;;;;;;;;4859681;29;20065;-79
2022/06/02 00:05:19;;;;;;;2.38;1.80;;;;;;;;;;4860277;29;20116;-80
2022/06/02 00:08:05;;;;;;;4.30;1.50;;;;;;;;;;4858375;29;20050;-79
2022/06/02 00:10:38;;;;;;;2.15;1.95;;;;;;;;;;4866127;29;20109;-79
2022/06/02 00:13:19;;;;;;;1.80;1.70;;;;;;;;;;4883611;29;20053;-78
2022/06/02 00:15:52;;;;;;;1.63;1.52;;;;;;;;;;4876571;29;20046;-79
2022/06/02 00:18:40;;;;;;;1.95;1.60;;;;;;;;;;4853993;29;20129;-79
2022/06/02 00:21:18;;;;;;;1.58;1.40;;;;;;;;;;4867974;29;20121;-78
2022/06/02 00:23:49;;;;;;;1.70;1.60;;;;;;;;;;4865069;29;20042;-80
2022/06/02 00:26:24;;;;;;;1.77;1.67;;;;;;;;;;4864793;29;20516;-79
2022/06/02 00:28:54;;;;;;;2.13;2.00;;;;;;;;;;4870253;29;20101;-79
2022/06/02 00:31:40;;;;;;;2.58;1.95;;;;;;;;;;4846176;29;20548;-79
2022/06/02 00:34:15;;;;;;;3.17;2.05;;;;;;;;;;4860486;29;20129;-80
2022/06/02 00:37:01;;;;;;;2.15;1.98;;;;;;;;;;4850465;29;20050;-80
2022/06/02 00:39:30;;;;;;;2.35;2.03;;;;;;;;;;4808459;29;20068;-79
2022/06/02 00:42:10;;;;;;;2.60;2.33;;;;;;;;;;4864604;29;20408;-80
2022/06/02 00:44:58;;;;;;;4.15;3.00;;;;;;;;;;4860515;29;20433;-80
2022/06/02 00:47:28;;;;;;;3.90;3.60;;;;;;;;;;4846844;29;20567;-80
2022/06/02 00:50:04;;;;;;;4.63;4.00;;;;;;;;;;4864423;29;20120;-80
2022/06/02 00:52:31;;;;;;;3.88;3.20;;;;;;;;;;4871978;29;20064;-80
2022/06/02 00:57:51;;;;;;;;;;;;;;;;;;4855842;29;20144;-79
2022/06/02 01:00:39;;;;;;;4.32;4.03;;;;;;;;;;4842122;29;20390;-80
2022/06/02 01:03:08;;;;;;;3.97;3.67;;;;;;;;;;4824808;29;20483;-79
2022/06/02 01:05:46;;;;;;;4.20;3.90;;;;;;;;;;4842125;29;20049;-80
2022/06/02 01:08:21;;;;;;;4.68;3.58;;;;;;;;;;4855158;29;20065;-80
2022/06/02 01:11:10;;;;;;;4.35;3.80;;;;;;;;;;4860420;29;20086;-80
2022/06/02 01:13:53;;;;;;;4.22;3.90;;;;;;;;;;4860194;29;20137;-80
2022/06/02 01:16:22;;;;;;;3.75;3.50;;;;;;;;;;4853673;29;20049;-80
2022/06/02 01:19:05;;;;;;;3.78;3.40;;;;;;;;;;4855992;29;20045;-79
2022/06/02 01:21:32;;;;;;;4.88;4.28;;;;;;;;;;4849553;29;20092;-80
2022/06/02 01:24:13;;;;;;;4.70;3.95;;;;;;;;;;4842638;29;20537;-79
2022/06/02 01:26:40;;;;;;;5.50;4.50;;;;;;;;;;4837780;29;20041;-80
2022/06/02 01:29:27;;;;;;;6.40;4.28;;;;;;;;;;4862222;29;20409;-80
2022/06/02 01:31:57;;;;;;;5.75;4.45;;;;;;;;;;4865427;29;20049;-80
2022/06/02 01:34:28;;;;;;;7.47;4.70;;;;;;;;;;4826568;29;20715;-78
2022/06/02 01:37:05;;;;;;;5.43;4.90;;;;;;;;;;4841752;29;20053;-80
2022/06/02 01:39:52;;;;;;;5.03;4.57;;;;;;;;;;4842842;29;20056;-80
2022/06/02 01:42:19;;;;;;;5.25;4.75;;;;;;;;;;4843836;29;20688;-79
2022/06/02 01:44:58;;;;;;;5.10;4.65;;;;;;;;;;4843890;29;20046;-80
2022/06/02 01:47:30;;;;;;;5.07;4.72;;;;;;;;;;4842041;29;20052;-79
2022/06/02 01:50:04;;;;;;;7.05;4.47;;;;;;;;;;4845606;29;20137;-80
2022/06/02 01:52:32;;;;;;;4.60;4.20;;;;;;;;;;4846556;29;20054;-80
2022/06/02 01:54:59;;;;;;;5.03;4.68;;;;;;;;;;4827847;29;20050;-79
2022/06/02 01:57:33;;;;;;;4.97;4.57;;;;;;;;;;4841224;29;20165;-79
2022/06/02 02:00:04;;;;;;;4.82;4.32;;;;;;;;;;4843056;29;20127;-79
2022/06/02 02:02:37;;;;;;;4.72;4.43;;;;;;;;;;4843715;29;20875;-81
2022/06/02 02:05:23;;;;;;;4.82;4.53;;;;;;;;;;4843432;29;20409;-81
2022/06/02 02:07:54;;;;;;;4.72;4.43;;;;;;;;;;4817713;29;21582;-80
2022/06/02 02:10:41;;;;;;;4.72;4.43;;;;;;;;;;4830969;29;20061;-79
2022/06/02 02:13:09;;;;;;;4.50;4.22;;;;;;;;;;4830743;29;20049;-80
2022/06/02 02:15:37;;;;;;;4.68;4.30;;;;;;;;;;4844856;29;20102;-81
2022/06/02 02:18:04;;;;;;;5.00;4.60;;;;;;;;;;4827811;29;20042;-79
2022/06/02 02:20:32;;;;;;;5.35;4.90;;;;;;;;;;4830584;29;20060;-79
2022/06/02 02:23:05;;;;;;;5.82;5.43;;;;;;;;;;4829246;29;20761;-81
2022/06/02 02:25:41;;;;;;;6.10;5.60;;;;;;;;;;4845872;29;20049;-80
2022/06/02 02:28:27;;;;;;;5.47;4.80;;;;;;;;;;4847477;29;20052;-79
2022/06/02 02:31:15;;;;;;;4.90;4.50;;;;;;;;;;4830307;29;20051;-81
2022/06/02 02:33:51;;;;;;;6.10;5.63;;;;;;;;;;4827401;29;20562;-81
2022/06/02 02:36:21;;;;;;;5.82;5.20;;;;;;;;;;4833841;29;20105;-80
2022/06/02 02:38:51;;;;;;;6.28;5.63;;;;;;;;;;4830600;29;20050;-81
2022/06/02 02:41:25;;;;;;;6.45;5.38;;;;;;;;;;4845819;29;20140;-80
2022/06/02 02:43:56;;;;;;;6.22;5.70;;;;;;;;;;4847416;29;20041;-80
2022/06/02 02:46:33;;;;;;;7.13;6.53;;;;;;;;;;4847199;29;20113;-79
2022/06/02 02:49:09;;;;;;;6.63;6.13;;;;;;;;;;4830026;29;22148;-79
2022/06/02 02:51:56;;;;;;;7.15;6.53;;;;;;;;;;4842837;29;20046;-81
2022/06/02 02:54:32;;;;;;;7.60;6.80;;;;;;;;;;4800656;29;21982;-80
2022/06/02 02:57:19;;;;;;;6.82;6.13;;;;;;;;;;4813883;29;20061;-79
2022/06/02 02:59:56;;;;;;;6.97;6.38;;;;;;;;;;4847195;29;20125;-80
2022/06/02 03:02:42;;;;;;;7.68;6.88;;;;;;;;;;4815607;29;20132;-80
2022/06/02 03:05:13;;;;;;;7.85;6.28;;;;;;;;;;4830868;29;20049;-80
2022/06/02 03:07:41;;;;;;;6.53;6.03;;;;;;;;;;4841956;29;20174;-81
2022/06/02 03:10:16;;;;;;;6.10;5.68;;;;;;;;;;4843101;29;20062;-79
2022/06/02 03:12:56;;;;;;;6.85;6.35;;;;;;;;;;4847194;29;20041;-80
2022/06/02 03:15:28;;;;;;;8.38;7.57;;;;;;;;;;4830623;29;20054;-79
2022/06/02 03:17:57;;;;;;;;;;;;;;;;;;4845795;29;20053;-80
2022/06/02 03:20:30;;;;;;;6.43;5.93;;;;;;;;;;4845155;29;19931;-80
2022/06/02 03:23:16;;;;;;;7.72;5.93;;;;;;;;;;4845693;29;20101;-80
2022/06/02 03:26:02;;;;;;;7.22;6.63;;;;;;;;;;4844579;29;20054;-80
2022/06/02 03:28:37;;;;;;;6.68;6.18;;;;;;;;;;4843502;29;20086;-79
2022/06/02 03:31:17;;;;;;;6.57;6.00;;;;;;;;;;4833276;29;20064;-79
2022/06/02 03:34:04;;;;;;;6.82;6.32;;;;;;;;;;4844057;29;20049;-81
2022/06/02 03:36:47;;;;;;;6.00;5.60;;;;;;;;;;4827811;29;20065;-81
2022/06/02 03:39:31;;;;;;;5.63;5.22;;;;;;;;;;4848844;29;20069;-81
2022/06/02 03:42:05;;;;;;;6.15;5.75;;;;;;;;;;4848846;29;20099;-80
2022/06/02 03:44:42;;;;;;;6.60;6.10;;;;;;;;;;4827642;29;20145;-80
2022/06/02 03:47:10;;;;;;;6.28;5.75;;;;;;;;;;4845585;29;20069;-80
2022/06/02 03:49:56;;;;;;;7.20;5.80;;;;;;;;;;4828767;29;20120;-81
2022/06/02 03:52:33;;;;;;;6.35;5.75;;;;;;;;;;4830131;29;20057;-81
2022/06/02 03:55:11;;;;;;;7.05;6.55;;;;;;;;;;4829395;29;20503;-81
2022/06/02 03:57:57;;;;;;;5.80;5.40;;;;;;;;;;4827668;29;20124;-80
2022/06/02 04:00:32;;;;;;;6.25;5.75;;;;;;;;;;4813167;29;20061;-80
2022/06/02 04:03:05;;;;;;;6.70;5.70;;;;;;;;;;4825378;29;20053;-79
2022/06/02 04:05:45;;;;;;;6.47;5.97;;;;;;;;;;4830275;29;20050;-80
2022/06/02 04:08:30;;;;;;;6.13;5.53;;;;;;;;;;4834854;29;20068;-80
2022/06/02 04:11:14;;;;;;;6.22;4.75;;;;;;;;;;4833166;29;20102;-80
2022/06/02 04:13:52;;;;;;;5.30;4.90;;;;;;;;;;4837910;29;20176;-81
2022/06/02 04:16:19;;;;;;;5.05;4.65;;;;;;;;;;4830746;29;20435;-80
2022/06/02 04:18:50;;;;;;;4.00;3.70;;;;;;;;;;4833586;29;20049;-80
2022/06/02 04:21:26;;;;;;;4.15;3.80;;;;;;;;;;4820314;29;20052;-81
2022/06/02 04:24:16;;;;;;;4.00;3.70;;;;;;;;;;4837228;29;20053;-80
2022/06/02 04:26:57;;;;;;;4.25;3.15;;;;;;;;;;4830188;29;20053;-80
2022/06/02 04:29:25;;;;;;;3.80;3.17;;;;;;;;;;4816416;29;20148;-82
2022/06/02 04:32:05;;;;;;;3.55;3.35;;;;;;;;;;4839409;29;20061;-80
2022/06/02 04:34:42;;;;;;;3.53;3.22;;;;;;;;;;4830941;29;21714;-80
2022/06/02 04:37:21;;;;;;;3.70;3.40;;;;;;;;;;4847884;29;20077;-82
2022/06/02 04:40:09;;;;;;;3.40;3.20;;;;;;;;;;4814238;29;20049;-81
2022/06/02 04:43:19;;;;;;;3.97;3.60;;;;;;;;;;4786331;29;20046;-81
2022/06/02 04:45:55;;;;;;;3.63;3.42;;;;;;;;;;4776345;29;20050;-80
2022/06/02 04:48:56;;;;;;;4.40;4.05;;;;;;;;;;4790354;29;20055;-80
2022/06/02 04:52:10;;;;;;;4.57;4.18;;;;;;;;;;4765267;29;20059;-81
2022/06/02 04:59:12;;;;;;;4.53;4.20;;;;;;;;;;4783239;29;20055;-82
2022/06/02 05:01:42;;;;;;;4.82;4.43;;;;;;;;;;4793356;29;20058;-81
2022/06/02 05:04:31;;;;;;;4.50;4.10;;;;;;;;;;4796321;29;20061;-82
2022/06/02 05:07:09;;;;;;;5.47;3.90;;;;;;;;;;4829337;29;20164;-81
2022/06/02 05:10:29;;;;;;;3.75;3.53;;;;;;;;;;4836762;29;20082;-80
2022/06/02 05:13:22;;;;;;;3.80;3.47;;;;;;;;;;4822224;29;20053;-81
2022/06/02 05:16:44;;;;;;;4.28;3.97;;;;;;;;;;4812160;29;20054;-82
2022/06/02 05:19:25;;;;;;;4.75;4.15;;;;;;;;;;4848393;29;20613;-83
2022/06/02 05:22:57;;;;;;;4.00;3.70;;;;;;;;;;4846648;29;20113;-81
2022/06/02 05:26:07;;;;;;;4.70;4.30;;;;;;;;;;4819636;29;20049;-82
2022/06/02 05:29:05;;;;;;;4.10;3.78;;;;;;;;;;4843447;29;20054;-82
2022/06/02 05:32:10;;;;;;;6.40;4.10;;;;;;;;;;4786782;29;20057;-80
2022/06/02 05:35:40;;;;;;;3.85;3.55;;;;;;;;;;4823435;29;20056;-83
2022/06/02 05:38:40;;;;;;;5.45;3.70;;;;;;;;;;4816652;29;20190;-82
2022/06/02 05:41:43;;;;;;;3.95;3.70;;;;;;;;;;4842858;29;20048;-81
2022/06/02 05:45:01;;;;;;;3.92;3.45;;;;;;;;;;4826777;29;20054;-79
2022/06/02 05:48:38;;;;;;;3.50;3.30;;;;;;;;;;4826725;29;20098;-82
2022/06/02 05:51:24;;;;;;;4.68;3.92;;;;;;;;;;4839896;29;20061;-85
2022/06/02 05:54:07;;;;;;;6.95;6.35;;;;;;;;;;4816922;29;20067;-78
2022/06/02 05:57:05;;;;;;;7.10;6.40;;;;;;;;;;4797067;29;20676;-81
2022/06/02 05:59:47;;;;;;;6.25;5.78;;;;;;;;;;4832402;29;20041;-81
2022/06/02 06:02:53;;;;;;;5.28;4.88;;;;;;;;;;4842898;29;21599;-88
2022/06/02 06:05:52;;;;;;;4.65;4.32;;;;;;;;;;4809587;29;20049;-81
2022/06/02 06:13:04;;;;;;;4.93;4.55;;;;;;;;;;4821983;29;20052;-80
2022/06/02 06:19:16;;;;;;;4.35;3.97;;;;;;;;;;4830353;29;20050;-81
2022/06/02 06:21:52;;;;;;;4.63;3.83;;;;;;;;;;4810371;29;20590;-83
2022/06/02 06:24:52;;;;;;;4.40;4.10;;;;;;;;;;4833674;29;20064;-82
2022/06/02 06:28:05;;;;;;;4.32;4.00;;;;;;;;;;4829186;29;20037;-80
2022/06/02 06:35:12;;;;;;;4.28;3.80;;;;;;;;;;4824866;29;20104;-81
2022/06/02 06:38:12;;;;;;;4.22;3.83;;;;;;;;;;4812520;29;20064;-81
2022/06/02 06:41:23;;;;;;;4.28;3.88;;;;;;;;;;4807064;29;20054;-81
2022/06/02 06:45:18;;;;;;;4.18;3.88;;;;;;;;;;4832069;29;20095;-81
2022/06/02 06:48:18;;;;;;;5.70;3.85;;;;;;;;;;4786652;29;20049;-80
2022/06/02 06:51:15;;;;;;;4.47;4.13;;;;;;;;;;4816530;29;20378;-81
2022/06/02 06:54:52;;;;;;;3.70;3.40;;;;;;;;;;4845492;29;20151;-82
2022/06/02 07:02:10;;;;;;;;;;;;;;;;;;;;;
2022/06/02 07:05:11;;;;;;;3.25;2.97;;;;;;;;;;4838815;29;20049;-82
2022/06/02 07:22:00;;;;;;;3.08;2.88;;;;;;;;;;4869058;29;20045;-83
2022/06/02 07:25:45;;;;;;;;;;;;;;;;;;;;;
2022/06/02 07:28:42;;;;;;;3.40;3.10;;;;;;;;;;4880653;29;20080;-78
2022/06/02 07:31:29;;;;;;;2.97;2.75;;;;;;;;;;4878835;29;20063;-77
2022/06/02 07:34:09;;;;;;;2.97;2.78;;;;;;;;;;4853346;29;20583;-78
2022/06/02 07:36:46;;;;;;;2.90;2.70;;;;;;;;;;4849953;29;20064;-77
2022/06/02 07:39:14;;;;;;;3.25;2.80;;;;;;;;;;4868614;29;20144;-78
2022/06/02 07:41:56;;;;;;;4.10;2.50;;;;;;;;;;4838491;29;20054;-78
2022/06/02 07:44:43;;;;;;;12.43;6.28;;;;;;;;;;4854597;29;20422;-79
2022/06/02 07:47:30;;;;;;;3.80;3.28;;;;;;;;;;4861771;29;20057;-78
2022/06/02 07:50:06;;;;;;;2.72;2.53;;;;;;;;;;4870251;29;20053;-78
2022/06/02 07:52:40;;;;;;;4.97;2.97;;;;;;;;;;4874437;29;20409;-79
2022/06/02 07:55:10;;;;;;;3.40;3.08;;;;;;;;;;4877459;29;20505;-78
2022/06/02 07:57:46;;;;;;;4.35;2.67;;;;;;;;;;4849728;29;20057;-79
2022/06/02 08:00:17;;;;;;;3.33;2.88;;;;;;;;;;4871222;29;20041;-78
2022/06/02 08:03:05;;;;;;;3.13;2.70;;;;;;;;;;4870330;29;20458;-78
2022/06/02 08:05:52;;;;;;;3.30;3.10;;;;;;;;;;4878456;29;20055;-79
2022/06/02 08:08:38;;;;;;;2.78;2.58;;;;;;;;;;4877679;29;20462;-78
2022/06/02 08:11:29;;;;;;;3.90;2.53;;;;;;;;;;4869837;29;20577;-79
2022/06/02 08:14:08;;;;;;;4.53;3.15;;;;;;;;;;4867103;29;20395;-79
2022/06/02 08:17:05;;;;;;;3.10;2.88;;;;;;;;;;4868583;29;20136;-78
2022/06/02 08:19:45;;;;;;;2.63;2.42;;;;;;;;;;4868186;29;20049;-79
2022/06/02 08:22:16;;;;;;;3.15;2.72;;;;;;;;;;4873994;29;20072;-79
2022/06/02 08:24:49;;;;;;;2.93;2.70;;;;;;;;;;4857170;29;20072;-78
2022/06/02 08:27:26;;;;;;;2.53;2.42;;;;;;;;;;4875106;29;20292;-78
2022/06/02 08:30:09;;;;;;;4.82;2.72;;;;;;;;;;4873305;29;20049;-79
2022/06/02 08:32:55;;;;;;;4.60;2.75;;;;;;;;;;4894046;29;20413;-79
2022/06/02 08:35:32;;;;;;;4.22;2.63;;;;;;;;;;4878853;29;20060;-79
2022/06/02 08:37:59;;;;;;;3.17;2.90;;;;;;;;;;4877648;29;20167;-78
2022/06/02 08:40:31;;;;;;;;;;;;;;;;;;4879018;29;20045;-79
2022/06/02 08:43:17;;;;;;;2.67;2.50;;;;;;;;;;4883739;29;20292;-79
2022/06/02 08:46:15;;;;;;;3.78;2.70;;;;;;;;;;4884844;29;20494;-79
2022/06/02 08:48:50;;;;;;;2.88;2.70;;;;;;;;;;4878521;29;20537;-78
2022/06/02 08:51:56;;;;;;;3.92;3.00;;;;;;;;;;4862872;29;20665;-79
2022/06/02 08:54:26;;;;;;;4.15;2.97;;;;;;;;;;4800984;29;20051;-79
2022/06/02 08:57:03;;;;;;;3.03;2.75;;;;;;;;;;4806990;29;20051;-79
2022/06/02 08:59:39;;;;;;;3.00;2.80;;;;;;;;;;4843473;29;20065;-79
2022/06/02 09:02:07;;;;;;;2.60;2.40;;;;;;;;;;4860915;29;20410;-78
2022/06/02 09:04:34;;;;;;;2.70;2.38;;;;;;;;;;4869789;29;20098;-80
2022/06/02 09:07:35;;;;;;;2.42;2.33;;;;;;;;;;4871982;29;20498;-78
2022/06/02 09:10:30;;;;;;;2.90;2.70;;;;;;;;;;4852537;29;20048;-78
2022/06/02 09:13:14;;;;;;;2.92;2.50;;;;;;;;;;4849539;29;20056;-79
2022/06/02 09:16:08;;;;;;;2.88;2.60;;;;;;;;;;4870151;29;20123;-79
2022/06/02 09:18:42;;;;;;;2.33;2.22;;;;;;;;;;4852376;29;20120;-78
2022/06/02 09:21:37;;;;;;;2.90;2.70;;;;;;;;;;4863594;29;20048;-80
2022/06/02 09:24:23;;;;;;;2.28;2.17;;;;;;;;;;4867019;29;20097;-79
2022/06/02 09:27:09;;;;;;;2.75;2.55;;;;;;;;;;4886785;29;20040;-78
2022/06/02 09:29:44;;;;;;;2.60;2.40;;;;;;;;;;4866812;29;20166;-80
2022/06/02 09:32:18;;;;;;;2.35;2.20;;;;;;;;;;4880058;29;20083;-79
2022/06/02 09:35:02;;;;;;;2.40;2.30;;;;;;;;;;4885581;29;20543;-80
2022/06/02 09:37:35;;;;;;;2.20;2.10;;;;;;;;;;4866415;29;20068;-80
2022/06/02 09:40:06;;;;;;;3.88;2.40;;;;;;;;;;4864696;29;20118;-80
2022/06/02 09:42:41;;;;;;;2.42;2.22;;;;;;;;;;4858779;29;20041;-80
2022/06/02 09:45:28;;;;;;;2.65;1.90;;;;;;;;;;4870197;29;20437;-80
2022/06/02 09:48:35;;;;;;;2.50;2.30;;;;;;;;;;4871309;29;20109;-80
2022/06/02 09:51:08;;;;;;;5.07;2.13;;;;;;;;;;4874548;29;20063;-79
2022/06/02 09:53:51;;;;;;;3.53;2.40;;;;;;;;;;4850626;29;20128;-79
2022/06/02 09:56:21;;;;;;;2.80;1.92;;;;;;;;;;4881628;29;20076;-79
2022/06/02 09:58:55;;;;;;;2.75;1.80;;;;;;;;;;4858164;29;20117;-80
2022/06/02 10:01:32;;;;;;;3.10;2.10;;;;;;;;;;4872024;29;20041;-79
2022/06/02 10:04:00;;;;;;;2.20;2.10;;;;;;;;;;4871958;29;20063;-80
2022/06/02 10:06:48;;;;;;;2.30;2.05;;;;;;;;;;4867792;29;20105;-80
2022/06/02 10:09:18;;;;;;;2.30;2.10;;;;;;;;;;4866414;29;20119;-79
2022/06/02 10:15:14;;;;;;;2.08;1.80;;;;;;;;;;4832102;29;20049;-80
2022/06/02 10:17:41;;;;;;;2.10;2.00;;;;;;;;;;4880799;29;20093;-79
2022/06/02 10:20:09;;;;;;;1.80;1.70;;;;;;;;;;4864675;29;20110;-79
2022/06/02 10:22:43;;;;;;;5.65;1.95;;;;;;;;;;4862589;29;20053;-79
2022/06/02 10:25:31;;;;;;;2.15;1.52;;;;;;;;;;4872109;29;20113;-80
2022/06/02 10:27:59;;;;;;;1.90;1.65;;;;;;;;;;4874734;29;20622;-80
2022/06/02 10:30:42;;;;;;;1.70;1.60;;;;;;;;;;4871832;29;20061;-79
2022/06/02 10:36:25;;;;;;;2.42;1.45;;;;;;;;;;4827431;29;20430;-80
2022/06/02 10:39:05;;;;;;;1.42;1.40;;;;;;;;;;4876948;29;20471;-80
2022/06/02 10:41:41;;;;;;;1.98;1.30;;;;;;;;;;4881430;29;20084;-80
2022/06/02 10:44:15;;;;;;;2.45;1.40;;;;;;;;;;4876471;29;20041;-80
2022/06/02 10:47:02;;;;;;;7.25;1.60;;;;;;;;;;4866597;29;20079;-80
2022/06/02 10:49:55;;;;;;;1.55;1.42;;;;;;;;;;4857209;29;20037;-79
2022/06/02 10:52:41;;;;;;;1.63;1.30;;;;;;;;;;4870739;29;20053;-80
2022/06/02 10:55:15;;;;;;;3.55;1.40;;;;;;;;;;4875474;29;20053;-80
2022/06/02 10:57:55;;;;;;;3.63;1.75;;;;;;;;;;4858449;29;20081;-80
2022/06/02 11:00:45;;;;;;;8.40;1.52;;;;;;;;;;4883565;29;20185;-80
2022/06/02 11:03:25;;;;;;;5.50;1.80;;;;;;;;;;4855966;29;20170;-81
2022/06/02 11:06:14;;;;;;;2.53;1.63;;;;;;;;;;4874593;29;20128;-81
2022/06/02 11:09:00;;;;;;;1.77;1.20;;;;;;;;;;4870157;29;20053;-80
2022/06/02 11:11:46;;;;;;;3.00;1.50;;;;;;;;;;4871028;29;20130;-81
2022/06/02 11:14:14;;;;;;;3.70;1.42;;;;;;;;;;4878235;29;20053;-81
2022/06/02 11:16:41;;;;;;;3.83;1.48;;;;;;;;;;4874159;29;20490;-81
2022/06/02 11:19:27;;;;;;;1.60;1.17;;;;;;;;;;4844827;29;20063;-80
2022/06/02 11:22:26;;;;;;;1.92;1.17;;;;;;;;;;4884817;29;20045;-80
2022/06/02 11:25:26;;;;;;;2.78;1.10;;;;;;;;;;4843484;29;20056;-80
2022/06/02 11:27:54;;;;;;;6.53;1.15;;;;;;;;;;4878180;29;20041;-81
2022/06/02 11:30:33;;;;;;;2.08;1.30;;;;;;;;;;4873948;29;20547;-80
2022/06/02 11:33:16;;;;;;;1.75;1.05;;;;;;;;;;4874456;29;20049;-80
2022/06/02 11:35:57;;;;;;;2.08;1.20;;;;;;;;;;4872044;29;20045;-78
2022/06/02 11:38:24;;;;;;;;;;;;;;;;;;4866342;29;20142;-80
2022/06/02 11:41:03;;;;;;;2.20;1.00;;;;;;;;;;4886232;29;20471;-79
2022/06/02 11:43:37;;;;;;;2.05;1.40;;;;;;;;;;4887925;29;20470;-80
2022/06/02 11:46:20;;;;;;;1.40;1.15;;;;;;;;;;4898297;29;20041;-80
2022/06/02 11:48:48;;;;;;;1.85;1.30;;;;;;;;;;4869172;29;20045;-79
2022/06/02 11:51:19;;;;;;;2.05;1.10;;;;;;;;;;4862874;29;20049;-79
2022/06/02 11:54:02;;;;;;;1.58;1.23;;;;;;;;;;4865252;29;20511;-80
2022/06/02 11:56:29;;;;;;;1.05;1.00;;;;;;;;;;4866198;29;20469;-79
2022/06/02 11:59:09;;;;;;;5.55;1.50;;;;;;;;;;4857787;29;20065;-79
2022/06/02 12:01:53;;;;;;;1.17;1.15;;;;;;;;;;4862694;29;20446;-79
2022/06/02 12:04:37;;;;;;;1.58;1.00;;;;;;;;;;4848984;29;20514;-80
2022/06/02 12:07:05;;;;;;;2.30;1.30;;;;;;;;;;4870025;29;20573;-80
2022/06/02 12:09:52;;;;;;;2.95;0.98;;;;;;;;;;4846268;29;20057;-79
2022/06/02 12:12:45;;;;;;;5.50;1.20;;;;;;;;;;4866706;29;20697;-81
2022/06/02 12:15:15;;;;;;;2.25;1.20;;;;;;;;;;4867965;29;20053;-79
2022/06/02 12:17:51;;;;;;;0.80;0.80;;;;;;;;;;4866187;29;20128;-79
2022/06/02 12:20:26;;;;;;;1.58;1.00;;;;;;;;;;4864292;29;20081;-81
2022/06/02 12:22:56;;;;;;;2.33;1.10;;;;;;;;;;4870176;29;20104;-80
2022/06/02 12:25:24;;;;;;;1.08;1.00;;;;;;;;;;4863756;29;20057;-80
2022/06/02 12:28:20;;;;;;;2.97;1.10;;;;;;;;;;4862641;29;20415;-79
2022/06/02 12:30:57;;;;;;;88.22;76.70;;;;;;;;;;4870484;29;20466;-79
2022/06/02 12:33:51;;;;;;;1.25;1.10;;;;;;;;;;4872093;29;20053;-80
2022/06/02 12:39:28;;;;;;;4.45;1.10;;;;;;;;;;4891888;29;20348;-79
2022/06/02 12:41:55;;;;;;;2.30;1.10;;;;;;;;;;4898656;29;20119;-78
2022/06/02 12:44:48;;;;;;;1.27;0.93;;;;;;;;;;4887545;29;20470;-79
2022/06/02 12:47:34;;;;;;;1.05;1.00;;;;;;;;;;4871380;29;20124;-79
2022/06/02 12:50:20;;;;;;;0.80;0.80;;;;;;;;;;4850745;29;20049;-79
2022/06/02 12:53:07;;;;;;;0.85;0.85;;;;;;;;;;4875099;29;20040;-80
2022/06/02 12:55:40;;;;;;;1.38;1.10;;;;;;;;;;4856353;29;20045;-79
2022/06/02 12:58:11;;;;;;;0.80;0.80;;;;;;;;;;4881113;29;20055;-79
2022/06/02 13:00:38;;;;;;;2.65;1.10;;;;;;;;;;4873493;29;20052;-79
2022/06/02 13:03:08;;;;;;;1.05;0.90;;;;;;;;;;4887919;29;20045;-79
2022/06/02 13:05:37;;;;;;;;;;;;;;;;;;4886548;29;20085;-79
2022/06/02 13:08:23;;;;;;;1.02;0.95;;;;;;;;;;4887429;29;19975;-80
2022/06/02 13:10:59;;;;;;;4.32;1.10;;;;;;;;;;4862399;29;20425;-80
2022/06/02 13:13:45;;;;;;;4.05;1.10;;;;;;;;;;4855949;29;20058;-79
2022/06/02 13:16:31;;;;;;;2.08;1.00;;;;;;;;;;4884165;29;20174;-79
2022/06/02 13:19:05;;;;;;;0.77;0.77;;;;;;;;;;4863794;29;20087;-80
2022/06/02 13:22:10;;;;;;;3.72;1.00;;;;;;;;;;4863654;29;20096;-79
2022/06/02 13:24:53;;;;;;;1.90;0.85;;;;;;;;;;4876853;29;20109;-79
2022/06/02 13:27:22;;;;;;;1.65;0.82;;;;;;;;;;4877790;23;20561;-81
2022/06/02 13:29:58;;;;;;;2.72;0.95;;;;;;;;;;4867541;29;20668;-81
2022/06/02 13:32:41;;;;;;;2.17;0.73;;;;;;;;;;4880121;29;20140;-81
2022/06/02 13:35:27;;;;;;;1.73;0.90;;;;;;;;;;4885529;29;20044;-79
2022/06/02 13:37:57;;;;;;;1.63;1.52;;;;;;;;;;4864031;29;20417;-80
2022/06/02 13:40:44;;;;;;;1.33;1.08;;;;;;;;;;4877682;29;20064;-80
2022/06/02 13:43:27;;;;;;;4.28;1.17;;;;;;;;;;4865606;29;20049;-80
2022/06/02 13:46:13;;;;;;;1.52;1.10;;;;;;;;;;4877819;29;20056;-81
2022/06/02 13:48:50;;;;;;;1.13;1.10;;;;;;;;;;4883919;29;20049;-81
2022/06/02 13:51:36;;;;;;;1.00;1.00;;;;;;;;;;4882688;29;20041;-81
2022/06/02 14:00:14;;;;;;;2.35;1.00;;;;;;;;;;4879811;29;20726;-81
2022/06/02 14:02:58;;;;;;;1.15;0.80;;;;;;;;;;4868075;29;20051;-81
2022/06/02 14:05:25;;;;;;;2.38;1.08;;;;;;;;;;4873135;29;20065;-81
2022/06/02 14:08:05;;;;;;;1.13;0.90;;;;;;;;;;4873107;29;20074;-79
2022/06/02 14:10:46;;;;;;;0.90;0.90;;;;;;;;;;4856855;29;20136;-81
2022/06/02 14:13:13;;;;;;;3.30;0.80;;;;;;;;;;4865723;29;20156;-81
2022/06/02 14:15:43;;;;;;;1.15;1.10;;;;;;;;;;4873745;29;20140;-80
2022/06/02 14:18:14;;;;;;;2.33;1.00;;;;;;;;;;4867544;29;20052;-79
2022/06/02 14:20:57;;;;;;;2.45;0.93;;;;;;;;;;4859807;29;20048;-78
2022/06/02 14:23:31;;;;;;;1.52;1.00;;;;;;;;;;4870623;29;20061;-81
2022/06/02 14:26:22;;;;;;;1.85;1.00;;;;;;;;;;4876485;29;20109;-79
2022/06/02 14:29:00;;;;;;;1.52;0.70;;;;;;;;;;4883352;29;20040;-80
2022/06/02 14:31:36;;;;;;;1.02;0.90;;;;;;;;;;4884265;29;20065;-81
2022/06/02 14:34:09;;;;;;;1.23;0.77;;;;;;;;;;4883720;29;20057;-80
2022/06/02 14:36:41;;;;;;;1.27;0.90;;;;;;;;;;4883005;29;20060;-79
2022/06/02 14:39:18;;;;;;;1.10;0.90;;;;;;;;;;4878601;29;20080;-80
2022/06/02 14:43:03;;;;;;;1.73;1.10;;;;;;;;;;4872760;29;20084;-80
2022/06/02 14:45:20;;;;;;;2.90;1.00;;;;;;;;;;4779388;29;20052;-80
2022/06/02 14:47:56;;;;;;;0.73;0.73;;;;;;;;;;4751419;30;20078;-80
2022/06/02 14:50:57;;;;;;;0.85;0.85;;;;;;;;;;4860489;29;20060;-80
2022/06/02 14:53:45;;;;;;;2.33;0.80;;;;;;;;;;4854987;29;20140;-79
2022/06/02 14:56:31;;;;;;;1.50;0.80;;;;;;;;;;4873713;29;20049;-79
2022/06/02 14:59:09;;;;;;;1.52;1.10;;;;;;;;;;4870936;29;20048;-78
2022/06/02 15:01:40;;;;;;;1.95;1.00;;;;;;;;;;4875015;29;20053;-80
2022/06/02 15:04:15;;;;;;;1.40;1.00;;;;;;;;;;4858924;29;20607;-80
2022/06/02 15:07:03;;;;;;;0.90;0.90;;;;;;;;;;4875926;29;20055;-80
2022/06/02 15:09:33;;;;;;;2.28;0.80;;;;;;;;;;4859437;29;20139;-79
2022/06/02 15:12:10;;;;;;;2.33;0.98;;;;;;;;;;4858137;29;20049;-78
2022/06/02 15:14:45;;;;;;;0.77;0.77;;;;;;;;;;4863614;29;20062;-79
2022/06/02 15:17:24;;;;;;;2.50;0.93;;;;;;;;;;4854926;29;20060;-80
2022/06/02 15:20:02;;;;;;;0.88;0.88;;;;;;;;;;4859266;29;20501;-81
2022/06/02 15:23:05;;;;;;;2.45;0.80;;;;;;;;;;4859112;29;20048;-79
2022/06/02 15:25:44;;;;;;;1.05;0.95;;;;;;;;;;4856962;29;20128;-81
2022/06/02 15:28:47;;;;;;;1.42;0.90;;;;;;;;;;4855859;29;20056;-80
2022/06/02 15:31:17;;;;;;;2.08;1.00;;;;;;;;;;4866966;29;20053;-80
2022/06/02 15:33:44;;;;;;;1.75;0.93;;;;;;;;;;4857488;29;20524;-80
2022/06/02 15:36:28;;;;;;;0.90;0.90;;;;;;;;;;4877460;29;20140;-79
2022/06/02 15:39:00;;;;;;;1.65;0.90;;;;;;;;;;4861142;29;20066;-78
2022/06/02 15:41:57;;;;;;;2.50;0.80;;;;;;;;;;4862630;29;20053;-79
2022/06/02 15:44:35;;;;;;;4.38;0.98;;;;;;;;;;4862783;29;20478;-78
2022/06/02 15:47:02;;;;;;;1.92;0.88;;;;;;;;;;4871049;29;20108;-79
2022/06/02 15:49:49;;;;;;;1.85;1.02;;;;;;;;;;4849345;29;20049;-79
2022/06/02 15:52:37;;;;;;;1.08;1.02;;;;;;;;;;4867797;29;20116;-79
2022/06/02 15:55:17;;;;;;;1.85;1.33;;;;;;;;;;4846907;29;20064;-79
2022/06/02 15:58:04;;;;;;;0.80;0.80;;;;;;;;;;4861390;29;20113;-82
2022/06/02 16:01:00;;;;;;;1.83;0.80;;;;;;;;;;4863044;29;20108;-81
2022/06/02 16:03:51;;;;;;;2.22;0.85;;;;;;;;;;4800381;29;20051;-81
2022/06/02 16:06:37;;;;;;;4.97;0.77;;;;;;;;;;4856164;29;20589;-81
2022/06/02 16:12:29;;;;;;;2.65;0.93;;;;;;;;;;4848716;29;20204;-81
2022/06/02 16:15:15;;;;;;;0.98;0.90;;;;;;;;;;4864167;29;20098;-81
2022/06/02 16:18:07;;;;;;;2.30;0.93;;;;;;;;;;4867404;29;20049;-81
2022/06/02 16:20:34;;;;;;;0.98;0.98;;;;;;;;;;4866455;29;20101;-80
2022/06/02 16:23:10;;;;;;;1.45;0.88;;;;;;;;;;4861185;29;20093;-81
2022/06/02 16:25:55;;;;;;;2.50;1.00;;;;;;;;;;4866990;29;20073;-81
2022/06/02 16:28:35;;;;;;;0.80;0.80;;;;;;;;;;4863005;29;20530;-80
2022/06/02 16:31:07;;;;;;;2.45;1.10;;;;;;;;;;4867288;29;20064;-82
2022/06/02 16:33:36;;;;;;;3.88;1.05;;;;;;;;;;4867393;29;20045;-80
2022/06/02 16:36:10;;;;;;;1.25;1.15;;;;;;;;;;4864375;29;20072;-80
2022/06/02 16:38:56;;;;;;;1.02;0.90;;;;;;;;;;4867091;29;20053;-81
2022/06/02 16:41:33;;;;;;;2.08;1.40;;;;;;;;;;4868046;29;20057;-81
2022/06/02 16:44:04;;;;;;;1.00;0.82;;;;;;;;;;4847057;29;20049;-81
2022/06/02 16:46:43;;;;;;;1.00;0.90;;;;;;;;;;4860806;29;20408;-79
2022/06/02 16:49:30;;;;;;;0.80;0.73;;;;;;;;;;4872338;29;20041;-79
2022/06/02 16:52:21;;;;;;;0.93;0.90;;;;;;;;;;4810325;29;20057;-79
2022/06/02 16:54:51;;;;;;;0.90;0.80;;;;;;;;;;4856911;29;20049;-80
2022/06/02 16:57:24;;;;;;;2.90;0.90;;;;;;;;;;4857013;29;20120;-80
2022/06/02 17:00:11;;;;;;;0.98;0.90;;;;;;;;;;4856707;29;20049;-80
2022/06/02 17:03:04;;;;;;;1.77;0.80;;;;;;;;;;4857789;29;20064;-80
2022/06/02 17:05:35;;;;;;;1.25;0.80;;;;;;;;;;4859607;29;20066;-80
2022/06/02 17:08:24;;;;;;;1.70;0.90;;;;;;;;;;4845138;29;20061;-80